createdAt,value
2022-10-03T00:02:31.052Z,1.38
2022-10-03T00:05:06.524Z,0.60
2022-10-03T00:07:51.141Z,0.50
2022-10-03T00:10:34.069Z,0.60
2022-10-03T00:13:03.899Z,0.40
2022-10-03T00:15:35.450Z,0.50
2022-10-03T00:18:13.986Z,0.30
2022-10-03T00:20:40.274Z,0.75
2022-10-03T00:23:15.724Z,0.30
2022-10-03T00:25:57.309Z,0.28
2022-10-03T00:28:38.909Z,0.38
2022-10-03T00:31:07.397Z,0.30
2022-10-03T00:33:36.897Z,0.30
2022-10-03T00:36:17.980Z,0.57
2022-10-03T00:38:47.012Z,0.40
2022-10-03T00:41:32.012Z,0.30
2022-10-03T00:44:04.556Z,0.57
2022-10-03T00:46:33.773Z,0.73
2022-10-03T00:49:19.158Z,0.40
2022-10-03T00:52:04.081Z,0.20
2022-10-03T00:54:30.341Z,0.45
2022-10-03T00:57:10.157Z,0.50
2022-10-03T00:59:55.511Z,1.63
2022-10-03T01:02:30.780Z,0.90
2022-10-03T01:05:17.259Z,0.70
2022-10-03T01:07:43.558Z,0.50
2022-10-03T01:10:22.159Z,0.65
2022-10-03T01:12:53.915Z,0.40
2022-10-03T01:15:27.164Z,2.70
2022-10-03T01:18:02.365Z,2.55
2022-10-03T01:20:32.965Z,2.00
2022-10-03T01:23:14.582Z,2.67
2022-10-03T01:25:42.346Z,3.65
2022-10-03T01:28:46.093Z,4.05
2022-10-03T01:31:13.933Z,3.80
2022-10-03T01:33:59.012Z,2.25
2022-10-03T01:36:29.457Z,2.30
2022-10-03T01:39:06.147Z,2.95
2022-10-03T01:41:46.766Z,1.88
2022-10-03T01:44:16.485Z,1.40
2022-10-03T01:46:46.582Z,1.08
2022-10-03T01:49:34.155Z,1.63
2022-10-03T01:52:08.775Z,0.95
2022-10-03T01:54:41.321Z,1.65
2022-10-03T01:57:25.561Z,1.98
2022-10-03T02:00:10.714Z,1.55
2022-10-03T02:02:42.452Z,0.82
2022-10-03T02:05:38.343Z,0.90
2022-10-03T02:08:17.804Z,1.60
2022-10-03T02:10:56.710Z,4.28
2022-10-03T02:13:30.484Z,2.35
2022-10-03T02:16:18.908Z,2.13
2022-10-03T02:18:55.490Z,3.45
2022-10-03T02:21:23.114Z,3.30
2022-10-03T02:23:52.754Z,4.68
2022-10-03T02:26:37.444Z,1.98
2022-10-03T02:29:25.305Z,4.05
2022-10-03T02:32:10.547Z,2.53
2022-10-03T02:34:56.514Z,2.17
2022-10-03T02:37:49.529Z,1.00
2022-10-03T02:40:19.574Z,1.23
2022-10-03T02:43:01.220Z,1.00
2022-10-03T02:45:43.297Z,1.42
2022-10-03T02:48:43.153Z,0.77
2022-10-03T02:51:09.940Z,0.90
2022-10-03T02:53:48.906Z,1.05
2022-10-03T02:56:15.170Z,0.82
2022-10-03T02:58:44.589Z,0.73
2022-10-03T03:01:29.678Z,0.80
2022-10-03T03:04:14.746Z,0.43
2022-10-03T03:06:41.449Z,2.08
2022-10-03T03:09:25.880Z,1.88
2022-10-03T03:11:56.314Z,2.67
2022-10-03T03:14:22.652Z,1.27
2022-10-03T03:17:08.885Z,1.77
2022-10-03T03:19:51.078Z,2.22
2022-10-03T03:25:19.288Z,0.73
2022-10-03T03:27:58.408Z,1.13
2022-10-03T03:30:36.816Z,0.77
2022-10-03T03:33:11.192Z,1.02
2022-10-03T03:35:37.516Z,1.67
2022-10-03T03:38:10.685Z,1.42
2022-10-03T03:40:39.933Z,1.50
2022-10-03T03:43:23.207Z,1.20
2022-10-03T03:46:20.147Z,1.83
2022-10-03T03:49:06.647Z,0.85
2022-10-03T03:51:39.488Z,0.95
2022-10-03T03:54:05.903Z,1.85
2022-10-03T03:56:32.212Z,0.52
2022-10-03T03:59:17.253Z,1.00
2022-10-03T04:01:59.156Z,0.90
2022-10-03T04:04:44.290Z,0.50
2022-10-03T04:07:34.626Z,0.50
2022-10-03T04:10:11.176Z,0.75
2022-10-03T04:12:48.618Z,0.57
2022-10-03T04:15:33.570Z,0.40
2022-10-03T04:18:18.714Z,0.68
2022-10-03T04:20:58.602Z,0.38
2022-10-03T04:23:36.813Z,0.60
2022-10-03T04:26:15.899Z,0.30
2022-10-03T04:28:45.251Z,1.10
2022-10-03T04:31:12.163Z,0.82
2022-10-03T04:33:44.659Z,0.50
2022-10-03T04:36:11.019Z,1.80
2022-10-03T04:38:40.121Z,0.50
2022-10-03T04:41:27.536Z,0.35
2022-10-03T04:44:14.098Z,1.30
2022-10-03T04:46:49.661Z,0.82
2022-10-03T04:49:15.934Z,1.05
2022-10-03T04:51:53.385Z,0.77
2022-10-03T04:54:28.144Z,0.60
2022-10-03T04:57:01.568Z,1.55
2022-10-03T04:59:27.872Z,1.15
2022-10-03T05:02:01.940Z,0.60
2022-10-03T05:04:34.106Z,0.93
2022-10-03T05:07:11.892Z,0.93
2022-10-03T05:09:54.343Z,0.77
2022-10-03T05:12:32.523Z,1.08
2022-10-03T05:15:15.070Z,2.10
2022-10-03T05:17:54.125Z,1.27
2022-10-03T05:20:42.566Z,2.25
2022-10-03T05:23:11.902Z,1.80
2022-10-03T05:25:53.461Z,1.20
2022-10-03T05:28:22.303Z,2.40
2022-10-03T05:30:53.506Z,2.15
2022-10-03T05:33:28.814Z,2.70
2022-10-03T05:36:04.376Z,3.65
2022-10-03T05:38:49.552Z,1.65
2022-10-03T05:41:36.311Z,0.85
2022-10-03T05:44:12.280Z,0.95
2022-10-03T05:46:38.557Z,0.45
2022-10-03T05:49:17.081Z,0.30
2022-10-03T05:52:02.131Z,0.50
2022-10-03T05:54:47.589Z,0.40
2022-10-03T05:57:26.177Z,0.50
2022-10-03T06:00:09.425Z,0.60
2022-10-03T06:02:38.835Z,0.85
2022-10-03T06:05:20.465Z,0.95
2022-10-03T06:07:52.851Z,0.85
2022-10-03T06:10:22.080Z,0.80
2022-10-03T06:13:08.878Z,0.75
2022-10-03T06:15:38.390Z,0.65
2022-10-03T06:18:10.902Z,0.50
2022-10-03T06:20:59.403Z,0.50
2022-10-03T06:23:25.914Z,0.70
2022-10-03T06:26:25.054Z,0.50
2022-10-03T06:28:51.363Z,1.05
2022-10-03T06:31:36.568Z,2.40
2022-10-03T06:34:21.847Z,0.75
2022-10-03T06:36:51.092Z,0.98
2022-10-03T06:39:56.101Z,0.90
2022-10-03T06:42:40.987Z,1.10
2022-10-03T06:45:16.360Z,1.77
2022-10-03T06:47:47.785Z,3.05
2022-10-03T06:50:19.475Z,1.65
2022-10-03T06:52:49.189Z,1.45
2022-10-03T06:55:15.456Z,1.08
2022-10-03T06:58:00.754Z,0.80
2022-10-03T07:00:42.563Z,0.80
2022-10-03T07:03:31.490Z,1.33
2022-10-03T07:06:23.020Z,0.70
2022-10-03T07:09:02.284Z,0.90
2022-10-03T07:11:32.847Z,0.40
2022-10-03T07:13:59.103Z,0.43
2022-10-03T07:16:44.185Z,0.30
2022-10-03T07:19:16.604Z,0.68
2022-10-03T07:22:01.802Z,0.55
2022-10-03T07:24:31.202Z,1.98
2022-10-03T07:26:57.491Z,1.17
2022-10-03T07:29:28.230Z,2.17
2022-10-03T07:31:54.760Z,5.30
2022-10-03T07:34:24.177Z,4.65
2022-10-03T07:37:27.292Z,2.45
2022-10-03T07:39:53.616Z,3.05
2022-10-03T07:42:43.527Z,1.25
2022-10-03T07:45:34.412Z,1.50
2022-10-03T07:48:13.352Z,1.98
2022-10-03T07:50:50.412Z,1.20
2022-10-03T07:53:39.045Z,0.98
2022-10-03T07:56:17.081Z,2.78
2022-10-03T07:58:54.799Z,1.50
2022-10-03T08:01:36.308Z,1.33
2022-10-03T08:04:03.041Z,1.80
2022-10-03T08:06:44.830Z,2.00
2022-10-03T08:09:19.753Z,0.60
2022-10-03T08:12:05.334Z,1.45
2022-10-03T08:14:37.587Z,1.42
2022-10-03T08:17:22.548Z,1.00
2022-10-03T08:19:51.949Z,0.50
2022-10-03T08:22:21.096Z,1.45
2022-10-03T08:25:07.798Z,1.30
2022-10-03T08:27:52.371Z,1.42
2022-10-03T08:30:22.796Z,1.08
2022-10-03T08:32:49.953Z,1.15
2022-10-03T08:35:25.256Z,0.40
2022-10-03T08:38:12.373Z,0.90
2022-10-03T08:41:14.056Z,2.25
2022-10-03T08:43:46.124Z,1.60
2022-10-03T08:46:31.433Z,1.33
2022-10-03T08:49:03.256Z,1.00
2022-10-03T08:51:50.063Z,2.05
2022-10-03T08:54:35.945Z,0.90
2022-10-03T08:57:08.446Z,0.68
2022-10-03T08:59:53.792Z,0.85
2022-10-03T09:02:20.381Z,2.60
2022-10-03T09:05:05.814Z,1.77
2022-10-03T09:07:55.243Z,0.95
2022-10-03T09:10:35.244Z,1.33
2022-10-03T09:13:10.989Z,2.42
2022-10-03T09:15:49.976Z,3.80
2022-10-03T09:18:29.275Z,3.08
2022-10-03T09:21:06.920Z,1.95
2022-10-03T09:23:52.216Z,1.42
2022-10-03T09:26:35.978Z,1.33
2022-10-03T09:29:21.278Z,1.42
2022-10-03T09:31:59.756Z,1.20
2022-10-03T09:34:39.578Z,1.88
2022-10-03T09:37:18.156Z,0.80
2022-10-03T09:40:03.477Z,0.75
2022-10-03T09:42:36.054Z,0.73
2022-10-03T09:45:05.958Z,0.77
2022-10-03T09:47:35.326Z,0.85
2022-10-03T09:50:21.439Z,0.88
2022-10-03T09:52:50.864Z,1.05
2022-10-03T09:55:20.274Z,1.02
2022-10-03T09:57:59.421Z,0.75
2022-10-03T10:00:38.127Z,2.15
2022-10-03T10:03:23.443Z,1.38
2022-10-03T10:05:49.832Z,1.73
2022-10-03T10:08:33.602Z,2.25
2022-10-03T10:11:09.010Z,2.28
2022-10-03T10:14:06.278Z,1.33
2022-10-03T10:16:49.895Z,1.75
2022-10-03T10:19:35.356Z,1.42
2022-10-03T10:22:10.453Z,1.60
2022-10-03T10:24:39.838Z,1.40
2022-10-03T10:27:08.860Z,0.93
2022-10-03T10:29:46.135Z,1.02
2022-10-03T10:32:27.685Z,1.08
2022-10-03T10:35:15.240Z,0.77
2022-10-03T10:37:46.371Z,0.93
2022-10-03T10:40:40.238Z,1.27
2022-10-03T10:43:15.537Z,2.00
2022-10-03T10:45:54.534Z,1.00
2022-10-03T10:48:39.501Z,1.50
2022-10-03T10:51:24.805Z,1.50
2022-10-03T10:53:54.245Z,1.13
2022-10-03T10:56:34.430Z,1.15
2022-10-03T10:59:19.406Z,3.13
2022-10-03T11:02:04.442Z,0.70
2022-10-03T11:04:49.598Z,1.30
2022-10-03T11:07:21.869Z,1.73
2022-10-03T11:10:06.720Z,1.30
2022-10-03T11:12:51.567Z,0.73
2022-10-03T11:15:17.841Z,1.40
2022-10-03T11:17:47.606Z,1.08
2022-10-03T11:20:29.192Z,0.60
2022-10-03T11:23:10.732Z,1.88
2022-10-03T11:25:43.751Z,1.20
2022-10-03T11:28:20.047Z,1.63
2022-10-03T11:30:50.732Z,1.08
2022-10-03T11:33:23.097Z,1.15
2022-10-03T11:36:04.579Z,1.30
2022-10-03T11:38:32.716Z,1.52
2022-10-03T11:41:08.292Z,2.03
2022-10-03T11:43:34.624Z,1.73
2022-10-03T11:46:18.426Z,1.20
2022-10-03T11:48:57.993Z,7.00
2022-10-03T11:51:32.138Z,3.92
2022-10-03T11:54:29.452Z,3.05
2022-10-03T11:57:02.574Z,2.75
2022-10-03T11:59:28.844Z,2.20
2022-10-03T12:02:09.302Z,3.15
2022-10-03T12:04:44.253Z,1.50
2022-10-03T12:07:34.576Z,1.33
2022-10-03T12:10:19.585Z,1.60
2022-10-03T12:12:48.239Z,1.38
2022-10-03T12:15:20.045Z,1.23
2022-10-03T12:20:19.167Z,1.25
2022-10-03T12:22:50.119Z,0.73
2022-10-03T12:25:34.906Z,1.20
2022-10-03T12:28:01.267Z,0.70
2022-10-03T12:30:31.372Z,0.55
2022-10-03T12:33:03.682Z,0.82
2022-10-03T12:35:35.828Z,0.40
2022-10-03T12:38:02.088Z,0.30
2022-10-03T12:40:31.694Z,0.57
2022-10-03T12:42:57.967Z,0.40
2022-10-03T12:45:27.553Z,2.05
2022-10-03T12:47:56.955Z,0.68
2022-10-03T12:50:43.189Z,0.30
2022-10-03T12:53:15.788Z,1.10
2022-10-03T12:56:00.809Z,0.63
2022-10-03T12:58:44.460Z,0.85
2022-10-03T13:01:29.743Z,1.98
2022-10-03T13:04:00.659Z,0.85
2022-10-03T13:07:02.743Z,1.27
2022-10-03T13:09:46.465Z,1.23
2022-10-03T13:12:25.425Z,1.90
2022-10-03T13:15:12.636Z,1.63
2022-10-03T13:17:49.332Z,1.65
2022-10-03T13:20:20.797Z,1.80
2022-10-03T13:22:50.178Z,3.25
2022-10-03T13:25:16.444Z,1.58
2022-10-03T13:27:46.626Z,2.17
2022-10-03T13:30:24.120Z,2.03
2022-10-03T13:32:55.504Z,2.80
2022-10-03T13:35:46.100Z,3.63
2022-10-03T13:38:31.850Z,1.30
2022-10-03T13:41:07.350Z,1.85
2022-10-03T13:43:37.776Z,0.98
2022-10-03T13:46:08.079Z,0.93
2022-10-03T13:48:35.500Z,0.93
2022-10-03T13:51:13.260Z,1.13
2022-10-03T13:53:56.570Z,3.53
2022-10-03T13:56:41.725Z,2.88
2022-10-03T13:59:07.993Z,1.63
2022-10-03T14:01:43.700Z,1.40
2022-10-03T14:04:25.763Z,1.48
2022-10-03T14:06:58.119Z,1.27
2022-10-03T14:09:32.523Z,2.22
2022-10-03T14:11:58.816Z,2.83
2022-10-03T14:14:38.369Z,1.27
2022-10-03T14:17:31.080Z,2.78
2022-10-03T14:20:20.015Z,2.78
2022-10-03T14:22:59.036Z,2.85
2022-10-03T14:25:27.921Z,1.83
2022-10-03T14:28:02.179Z,1.00
2022-10-03T14:30:31.954Z,0.93
2022-10-03T14:33:17.685Z,0.80
2022-10-03T14:35:51.973Z,0.43
2022-10-03T14:38:18.248Z,0.80
2022-10-03T14:40:51.256Z,1.50
2022-10-03T14:43:28.731Z,0.77
2022-10-03T14:45:59.316Z,0.85
2022-10-03T14:48:30.589Z,0.40
2022-10-03T14:51:17.121Z,0.60
2022-10-03T14:54:06.915Z,2.13
2022-10-03T14:56:34.989Z,0.98
2022-10-03T14:59:12.181Z,2.65
2022-10-03T15:01:46.750Z,1.63
2022-10-03T15:04:37.085Z,2.33
2022-10-03T15:07:04.713Z,2.78
2022-10-03T15:09:33.657Z,0.98
2022-10-03T15:12:03.140Z,1.00
2022-10-03T15:14:30.989Z,0.82
2022-10-03T15:16:58.107Z,1.33
2022-10-03T15:19:29.714Z,1.10
2022-10-03T15:21:58.266Z,0.73
2022-10-03T15:24:27.332Z,0.85
2022-10-03T15:27:09.207Z,0.60
2022-10-03T15:29:38.220Z,0.70
2022-10-03T15:32:06.850Z,0.55
2022-10-03T15:34:38.912Z,1.00
2022-10-03T15:37:08.005Z,1.10
2022-10-03T15:39:37.212Z,0.90
2022-10-03T15:42:09.475Z,0.60
2022-10-03T15:44:51.604Z,0.77
2022-10-03T15:47:20.446Z,0.68
2022-10-03T15:49:50.165Z,0.82
2022-10-03T15:52:19.093Z,0.60
2022-10-03T15:54:47.159Z,0.52
2022-10-03T15:57:18.944Z,0.43
2022-10-03T15:59:49.632Z,0.47
2022-10-03T16:02:18.941Z,0.63
2022-10-03T16:04:46.911Z,0.30
2022-10-03T16:07:28.280Z,0.70
2022-10-03T16:10:01.506Z,0.30
2022-10-03T16:12:46.832Z,0.47
2022-10-03T16:15:28.441Z,0.63
2022-10-03T16:18:15.025Z,0.30
2022-10-03T16:20:42.304Z,0.50
2022-10-03T16:23:20.740Z,0.20
2022-10-03T16:25:49.803Z,0.52
2022-10-03T16:28:18.348Z,0.30
2022-10-03T16:31:04.938Z,1.20
2022-10-03T16:33:33.509Z,0.30
2022-10-03T16:36:05.682Z,0.30
2022-10-03T16:38:35.493Z,0.30
2022-10-03T16:41:24.904Z,0.35
2022-10-03T16:44:04.431Z,0.20
2022-10-03T16:46:41.352Z,0.20
2022-10-03T16:49:30.128Z,1.17
2022-10-03T16:52:01.594Z,2.85
2022-10-03T16:54:28.573Z,2.55
2022-10-03T16:56:57.748Z,2.35
2022-10-03T16:59:24.761Z,3.22
2022-10-03T17:01:52.902Z,2.35
2022-10-03T17:04:24.281Z,2.90
2022-10-03T17:06:51.580Z,1.17
2022-10-03T17:09:21.216Z,0.90
2022-10-03T17:11:51.403Z,1.50
2022-10-03T17:14:19.241Z,0.70
2022-10-03T17:16:49.346Z,0.50
2022-10-03T17:19:24.826Z,0.52
2022-10-03T17:21:54.611Z,0.40
2022-10-03T17:24:38.250Z,0.40
2022-10-03T17:27:10.001Z,2.30
2022-10-03T17:29:42.669Z,0.98
2022-10-03T17:32:11.698Z,0.68
2022-10-03T17:34:37.990Z,0.47
2022-10-03T17:37:04.402Z,0.50
2022-10-03T17:39:33.428Z,0.43
2022-10-03T17:42:02.945Z,0.40
2022-10-03T17:44:36.229Z,0.30
2022-10-03T17:47:02.482Z,0.75
2022-10-03T17:49:31.876Z,0.30
2022-10-03T17:51:58.480Z,0.30
2022-10-03T17:54:28.403Z,0.77
2022-10-03T17:56:57.204Z,0.73
2022-10-03T17:59:28.081Z,0.32
2022-10-03T18:01:57.856Z,0.82
2022-10-03T18:04:30.919Z,1.70
2022-10-03T18:07:01.381Z,2.00
2022-10-03T18:09:54.570Z,2.83
2022-10-03T18:12:37.480Z,2.50
2022-10-03T18:15:13.423Z,2.97
2022-10-03T18:17:58.391Z,3.08
2022-10-03T18:20:33.998Z,2.30
2022-10-03T18:23:02.756Z,5.30
2022-10-03T18:26:18.661Z,3.25
2022-10-03T18:28:48.082Z,2.08
2022-10-03T18:31:19.433Z,1.75
2022-10-03T18:33:50.979Z,1.02
2022-10-03T18:36:20.696Z,1.10
2022-10-03T18:38:48.190Z,1.15
2022-10-03T18:41:15.969Z,0.77
2022-10-03T18:43:46.056Z,0.60
2022-10-03T18:46:21.562Z,0.70
2022-10-03T18:49:31.941Z,1.85
2022-10-03T18:51:58.219Z,1.67
2022-10-03T18:54:24.675Z,2.00
2022-10-03T18:57:08.825Z,2.83
2022-10-03T18:59:45.332Z,2.38
2022-10-03T19:02:32.089Z,3.42
2022-10-03T19:05:04.786Z,2.78
2022-10-03T19:07:33.277Z,3.20
2022-10-03T19:10:18.114Z,2.90
2022-10-03T19:12:48.884Z,3.65
2022-10-03T19:15:19.301Z,2.10
2022-10-03T19:17:45.673Z,2.40
2022-10-03T19:20:23.111Z,2.65
2022-10-03T19:23:00.052Z,1.30
2022-10-03T19:25:27.397Z,1.33
2022-10-03T19:28:27.609Z,1.42
2022-10-03T19:30:58.821Z,1.58
2022-10-03T19:33:26.611Z,1.47
2022-10-03T19:35:55.265Z,1.05
2022-10-03T19:38:27.696Z,0.95
2022-10-03T19:41:06.153Z,3.08
2022-10-03T19:43:40.714Z,2.95
2022-10-03T19:46:11.321Z,6.93
2022-10-03T19:48:42.832Z,4.55
2022-10-03T19:51:23.856Z,4.57
2022-10-03T19:53:52.765Z,3.58
2022-10-03T19:56:21.233Z,2.65
2022-10-03T19:58:48.624Z,2.80
2022-10-03T20:01:16.563Z,2.47
2022-10-03T20:03:51.930Z,2.90
2022-10-03T20:06:21.062Z,4.22
2022-10-03T20:08:51.965Z,6.75
2022-10-03T20:11:27.212Z,3.40
2022-10-03T20:13:54.103Z,2.55
2022-10-03T20:16:22.811Z,2.80
2022-10-03T20:18:50.765Z,2.17
2022-10-03T20:21:18.784Z,2.08
2022-10-03T20:23:45.540Z,0.88
2022-10-03T20:26:11.837Z,1.38
2022-10-03T20:29:07.361Z,0.80
2022-10-03T20:31:33.925Z,1.35
2022-10-03T20:34:03.553Z,1.98
2022-10-03T20:36:32.205Z,0.75
2022-10-03T20:39:01.397Z,0.95
2022-10-03T20:41:27.677Z,0.60
2022-10-03T20:43:53.932Z,0.77
2022-10-03T20:46:40.665Z,0.70
2022-10-03T20:49:06.967Z,0.40
2022-10-03T20:51:42.591Z,0.75
2022-10-03T20:54:13.005Z,0.40
2022-10-03T20:56:45.174Z,0.77
2022-10-03T20:59:12.628Z,0.35
2022-10-03T21:01:40.532Z,0.40
2022-10-03T21:04:28.325Z,0.40
2022-10-03T21:07:06.728Z,0.47
2022-10-03T21:09:39.101Z,0.38
2022-10-03T21:12:05.785Z,0.30
2022-10-03T21:14:33.435Z,0.30
2022-10-03T21:17:00.134Z,0.35
2022-10-03T21:19:32.270Z,0.20
2022-10-03T21:22:00.222Z,0.30
2022-10-03T21:24:45.500Z,0.20
2022-10-03T21:27:14.096Z,0.20
2022-10-03T21:29:41.666Z,0.40
2022-10-03T21:32:14.414Z,0.40
2022-10-03T21:34:56.775Z,0.20
2022-10-03T21:37:27.600Z,0.30
2022-10-03T21:40:20.307Z,0.35
2022-10-03T21:42:55.955Z,0.93
2022-10-03T21:45:25.068Z,0.55
2022-10-03T21:47:53.986Z,0.40
2022-10-03T21:50:31.537Z,0.40
2022-10-03T21:53:00.609Z,0.82
2022-10-03T21:55:50.708Z,0.60
2022-10-03T21:58:19.987Z,0.60
2022-10-03T22:00:46.298Z,0.40
2022-10-03T22:03:24.779Z,0.20
2022-10-03T22:05:51.046Z,0.30
2022-10-03T22:08:22.514Z,0.20
2022-10-03T22:11:04.218Z,0.30
2022-10-03T22:13:33.488Z,0.30
2022-10-03T22:16:13.704Z,0.20
2022-10-03T22:18:58.965Z,0.30
2022-10-03T22:21:26.362Z,0.30
2022-10-03T22:24:04.732Z,0.20
2022-10-03T22:26:41.285Z,0.82
2022-10-03T22:29:29.998Z,0.30
2022-10-03T22:31:59.756Z,0.40
2022-10-03T22:34:44.656Z,0.40
2022-10-03T22:37:12.316Z,0.30
2022-10-03T22:39:38.882Z,0.30
2022-10-03T22:42:06.345Z,0.35
2022-10-03T22:44:34.616Z,0.25
2022-10-03T22:47:27.254Z,0.30
2022-10-03T22:49:58.929Z,0.20
2022-10-03T22:52:26.599Z,0.20
2022-10-03T22:54:53.034Z,0.30
2022-10-03T22:57:19.470Z,0.20
2022-10-03T22:59:48.213Z,0.20
2022-10-03T23:02:15.390Z,0.20
2022-10-03T23:04:41.712Z,0.35
2022-10-03T23:07:14.320Z,0.30
2022-10-03T23:10:03.508Z,0.82
2022-10-03T23:12:32.096Z,0.60
2022-10-03T23:15:00.376Z,0.82
2022-10-03T23:17:46.229Z,0.57
2022-10-03T23:20:23.251Z,0.65
2022-10-03T23:22:53.430Z,2.00
2022-10-03T23:25:23.646Z,1.45
2022-10-03T23:28:10.873Z,1.05
2022-10-03T23:30:45.933Z,0.47
2022-10-03T23:33:16.718Z,0.60
2022-10-03T23:35:43.402Z,0.32
2022-10-03T23:38:28.430Z,0.30
2022-10-03T23:40:56.845Z,0.50
2022-10-03T23:43:25.931Z,0.30
2022-10-03T23:45:53.591Z,0.40
2022-10-03T23:48:23.214Z,0.30
2022-10-03T23:50:57.231Z,2.00
2022-10-03T23:53:38.719Z,0.30
2022-10-03T23:56:22.778Z,0.40
2022-10-03T23:58:58.010Z,0.50
